sensor_id;sensor_type;location;lat;lon;timestamp;temperature;humidity
49829;DHT22;35723;51.194;5.112;2022-08-19T00:01:27;21.40;99.90
49829;DHT22;35723;51.194;5.112;2022-08-19T00:03:56;21.40;99.90
49829;DHT22;35723;51.194;5.112;2022-08-19T00:06:22;21.30;99.90
49829;DHT22;35723;51.194;5.112;2022-08-19T00:08:48;21.30;99.90
49829;DHT22;35723;51.194;5.112;2022-08-19T00:11:13;21.30;99.90
49829;DHT22;35723;51.194;5.112;2022-08-19T00:13:39;21.30;99.90
49829;DHT22;35723;51.194;5.112;2022-08-19T00:16:06;21.30;99.90
49829;DHT22;35723;51.194;5.112;2022-08-19T00:18:33;21.30;99.90
49829;DHT22;35723;51.194;5.112;2022-08-19T00:20:59;21.30;99.90
49829;DHT22;35723;51.194;5.112;2022-08-19T00:23:25;21.30;99.90
49829;DHT22;35723;51.194;5.112;2022-08-19T00:25:51;21.30;99.90
49829;DHT22;35723;51.194;5.112;2022-08-19T00:28:18;21.30;99.90
49829;DHT22;35723;51.194;5.112;2022-08-19T00:30:44;21.20;99.90
49829;DHT22;35723;51.194;5.112;2022-08-19T00:33:10;21.10;99.90
49829;DHT22;35723;51.194;5.112;2022-08-19T00:35:36;21.20;99.90
49829;DHT22;35723;51.194;5.112;2022-08-19T00:38:04;21.30;99.90
49829;DHT22;35723;51.194;5.112;2022-08-19T00:40:30;21.20;99.90
49829;DHT22;35723;51.194;5.112;2022-08-19T00:42:56;21.10;99.90
49829;DHT22;35723;51.194;5.112;2022-08-19T00:45:25;21.10;99.90
49829;DHT22;35723;51.194;5.112;2022-08-19T00:47:51;21.20;99.90
49829;DHT22;35723;51.194;5.112;2022-08-19T00:50:18;21.20;99.90
49829;DHT22;35723;51.194;5.112;2022-08-19T00:52:47;21.20;99.90
49829;DHT22;35723;51.194;5.112;2022-08-19T00:55:32;21.20;99.90
49829;DHT22;35723;51.194;5.112;2022-08-19T00:58:07;21.20;99.90
49829;DHT22;35723;51.194;5.112;2022-08-19T01:00:33;21.10;99.90
49829;DHT22;35723;51.194;5.112;2022-08-19T01:03:07;21.20;99.90
49829;DHT22;35723;51.194;5.112;2022-08-19T01:05:33;21.20;99.90
49829;DHT22;35723;51.194;5.112;2022-08-19T01:08:02;21.10;99.90
49829;DHT22;35723;51.194;5.112;2022-08-19T01:10:31;21.10;99.90
49829;DHT22;35723;51.194;5.112;2022-08-19T01:12:58;21.10;99.90
49829;DHT22;35723;51.194;5.112;2022-08-19T01:15:31;21.20;99.90
49829;DHT22;35723;51.194;5.112;2022-08-19T01:18:00;21.20;99.90
49829;DHT22;35723;51.194;5.112;2022-08-19T01:20:27;21.10;99.90
49829;DHT22;35723;51.194;5.112;2022-08-19T01:22:57;21.10;99.90
49829;DHT22;35723;51.194;5.112;2022-08-19T01:25:31;21.10;99.90
49829;DHT22;35723;51.194;5.112;2022-08-19T01:27:57;21.10;99.90
49829;DHT22;35723;51.194;5.112;2022-08-19T01:30:27;21.10;99.90
49829;DHT22;35723;51.194;5.112;2022-08-19T01:32:54;21.10;99.90
49829;DHT22;35723;51.194;5.112;2022-08-19T01:35:21;21.20;99.90
49829;DHT22;35723;51.194;5.112;2022-08-19T01:37:54;21.20;99.90
49829;DHT22;35723;51.194;5.112;2022-08-19T01:40:24;21.00;99.90
49829;DHT22;35723;51.194;5.112;2022-08-19T01:42:52;20.80;99.90
49829;DHT22;35723;51.194;5.112;2022-08-19T01:45:20;20.60;99.90
49829;DHT22;35723;51.194;5.112;2022-08-19T01:47:47;20.50;99.90
49829;DHT22;35723;51.194;5.112;2022-08-19T01:50:12;20.40;99.90
49829;DHT22;35723;51.194;5.112;2022-08-19T01:52:40;20.50;99.90
49829;DHT22;35723;51.194;5.112;2022-08-19T01:55:08;20.60;99.90
49829;DHT22;35723;51.194;5.112;2022-08-19T01:57:35;20.80;99.90
49829;DHT22;35723;51.194;5.112;2022-08-19T02:00:03;20.90;99.90
49829;DHT22;35723;51.194;5.112;2022-08-19T02:02:30;20.80;99.90
49829;DHT22;35723;51.194;5.112;2022-08-19T02:04:56;20.90;99.90
49829;DHT22;35723;51.194;5.112;2022-08-19T02:07:22;20.90;99.90
49829;DHT22;35723;51.194;5.112;2022-08-19T02:09:48;20.90;99.90
49829;DHT22;35723;51.194;5.112;2022-08-19T02:12:14;20.90;99.90
49829;DHT22;35723;51.194;5.112;2022-08-19T02:14:40;20.70;99.90
49829;DHT22;35723;51.194;5.112;2022-08-19T02:17:05;20.80;99.90
49829;DHT22;35723;51.194;5.112;2022-08-19T02:19:31;20.60;99.90
49829;DHT22;35723;51.194;5.112;2022-08-19T02:21:58;20.40;99.90
49829;DHT22;35723;51.194;5.112;2022-08-19T02:24:24;20.30;99.90
49829;DHT22;35723;51.194;5.112;2022-08-19T02:26:50;20.30;99.90
49829;DHT22;35723;51.194;5.112;2022-08-19T02:29:16;20.20;99.90
49829;DHT22;35723;51.194;5.112;2022-08-19T02:31:42;20.20;99.90
49829;DHT22;35723;51.194;5.112;2022-08-19T02:34:07;20.30;99.90
49829;DHT22;35723;51.194;5.112;2022-08-19T02:36:34;20.20;99.90
49829;DHT22;35723;51.194;5.112;2022-08-19T02:38:59;20.20;99.90
49829;DHT22;35723;51.194;5.112;2022-08-19T02:41:27;20.20;99.90
49829;DHT22;35723;51.194;5.112;2022-08-19T02:43:57;20.30;99.90
49829;DHT22;35723;51.194;5.112;2022-08-19T02:46:25;20.40;99.90
49829;DHT22;35723;51.194;5.112;2022-08-19T02:48:54;20.50;99.90
49829;DHT22;35723;51.194;5.112;2022-08-19T02:51:26;20.50;99.90
49829;DHT22;35723;51.194;5.112;2022-08-19T02:53:52;20.40;99.90
49829;DHT22;35723;51.194;5.112;2022-08-19T02:56:19;20.30;99.90
49829;DHT22;35723;51.194;5.112;2022-08-19T02:58:44;20.40;99.90
49829;DHT22;35723;51.194;5.112;2022-08-19T03:01:18;20.40;99.90
49829;DHT22;35723;51.194;5.112;2022-08-19T03:03:44;20.40;99.90
49829;DHT22;35723;51.194;5.112;2022-08-19T03:06:15;20.50;99.90
49829;DHT22;35723;51.194;5.112;2022-08-19T03:08:42;20.30;99.90
49829;DHT22;35723;51.194;5.112;2022-08-19T03:11:26;20.30;99.90
49829;DHT22;35723;51.194;5.112;2022-08-19T03:13:53;20.40;99.90
49829;DHT22;35723;51.194;5.112;2022-08-19T03:16:21;20.30;99.90
49829;DHT22;35723;51.194;5.112;2022-08-19T03:18:47;20.20;99.90
49829;DHT22;35723;51.194;5.112;2022-08-19T03:21:17;20.30;99.90
49829;DHT22;35723;51.194;5.112;2022-08-19T03:23:44;20.40;99.90
49829;DHT22;35723;51.194;5.112;2022-08-19T03:26:09;20.30;99.90
49829;DHT22;35723;51.194;5.112;2022-08-19T03:28:35;20.40;99.90
49829;DHT22;35723;51.194;5.112;2022-08-19T03:31:06;20.40;99.90
49829;DHT22;35723;51.194;5.112;2022-08-19T03:33:33;20.40;99.90
49829;DHT22;35723;51.194;5.112;2022-08-19T03:36:14;20.30;99.90
49829;DHT22;35723;51.194;5.112;2022-08-19T03:38:43;20.20;99.90
49829;DHT22;35723;51.194;5.112;2022-08-19T03:41:12;20.00;99.90
49829;DHT22;35723;51.194;5.112;2022-08-19T03:43:39;19.90;99.90
49829;DHT22;35723;51.194;5.112;2022-08-19T03:46:11;20.00;99.90
49829;DHT22;35723;51.194;5.112;2022-08-19T03:48:38;20.10;99.90
49829;DHT22;35723;51.194;5.112;2022-08-19T03:51:06;20.10;99.90
49829;DHT22;35723;51.194;5.112;2022-08-19T03:53:34;20.30;99.90
49829;DHT22;35723;51.194;5.112;2022-08-19T03:56:00;20.20;99.90
49829;DHT22;35723;51.194;5.112;2022-08-19T03:58:28;20.20;99.90
49829;DHT22;35723;51.194;5.112;2022-08-19T04:00:55;20.10;99.90
49829;DHT22;35723;51.194;5.112;2022-08-19T04:03:22;20.30;99.90
49829;DHT22;35723;51.194;5.112;2022-08-19T04:05:48;20.30;99.90
49829;DHT22;35723;51.194;5.112;2022-08-19T04:08:14;20.10;99.90
49829;DHT22;35723;51.194;5.112;2022-08-19T04:10:43;20.20;99.90
49829;DHT22;35723;51.194;5.112;2022-08-19T04:13:08;20.40;99.90
49829;DHT22;35723;51.194;5.112;2022-08-19T04:15:39;20.30;99.90
49829;DHT22;35723;51.194;5.112;2022-08-19T04:18:07;20.30;99.90
49829;DHT22;35723;51.194;5.112;2022-08-19T04:20:39;20.30;99.90
49829;DHT22;35723;51.194;5.112;2022-08-19T04:23:05;20.30;99.90
49829;DHT22;35723;51.194;5.112;2022-08-19T04:25:38;20.10;99.90
49829;DHT22;35723;51.194;5.112;2022-08-19T04:28:05;20.10;99.90
49829;DHT22;35723;51.194;5.112;2022-08-19T04:30:40;20.10;99.90
49829;DHT22;35723;51.194;5.112;2022-08-19T04:33:07;20.20;99.90
49829;DHT22;35723;51.194;5.112;2022-08-19T04:35:38;20.30;99.90
49829;DHT22;35723;51.194;5.112;2022-08-19T04:38:04;20.20;99.90
49829;DHT22;35723;51.194;5.112;2022-08-19T04:40:30;20.20;99.90
49829;DHT22;35723;51.194;5.112;2022-08-19T04:43:14;20.10;99.90
49829;DHT22;35723;51.194;5.112;2022-08-19T04:45:42;20.00;99.90
49829;DHT22;35723;51.194;5.112;2022-08-19T04:48:08;20.10;99.90
49829;DHT22;35723;51.194;5.112;2022-08-19T04:50:35;20.00;99.90
49829;DHT22;35723;51.194;5.112;2022-08-19T04:53:01;20.10;99.90
49829;DHT22;35723;51.194;5.112;2022-08-19T04:55:26;20.00;99.90
49829;DHT22;35723;51.194;5.112;2022-08-19T04:57:53;20.00;99.90
49829;DHT22;35723;51.194;5.112;2022-08-19T05:00:19;20.00;99.90
49829;DHT22;35723;51.194;5.112;2022-08-19T05:02:45;20.00;99.90
49829;DHT22;35723;51.194;5.112;2022-08-19T05:05:11;19.80;99.90
49829;DHT22;35723;51.194;5.112;2022-08-19T05:07:37;19.80;99.90
49829;DHT22;35723;51.194;5.112;2022-08-19T05:10:05;19.70;99.90
49829;DHT22;35723;51.194;5.112;2022-08-19T05:12:31;19.70;99.90
49829;DHT22;35723;51.194;5.112;2022-08-19T05:14:57;19.70;99.90
49829;DHT22;35723;51.194;5.112;2022-08-19T05:17:27;19.60;99.90
49829;DHT22;35723;51.194;5.112;2022-08-19T05:19:53;19.70;99.90
49829;DHT22;35723;51.194;5.112;2022-08-19T05:22:37;19.70;99.90
49829;DHT22;35723;51.194;5.112;2022-08-19T05:25:12;19.80;99.90
49829;DHT22;35723;51.194;5.112;2022-08-19T05:27:39;20.00;99.90
49829;DHT22;35723;51.194;5.112;2022-08-19T05:30:05;19.70;99.90
49829;DHT22;35723;51.194;5.112;2022-08-19T05:32:32;19.90;99.90
49829;DHT22;35723;51.194;5.112;2022-08-19T05:34:58;20.00;99.90
49829;DHT22;35723;51.194;5.112;2022-08-19T05:37:23;20.00;99.90
49829;DHT22;35723;51.194;5.112;2022-08-19T05:39:52;20.00;99.90
49829;DHT22;35723;51.194;5.112;2022-08-19T05:42:17;20.00;99.90
49829;DHT22;35723;51.194;5.112;2022-08-19T05:44:44;19.80;99.90
49829;DHT22;35723;51.194;5.112;2022-08-19T05:47:12;20.00;99.90
49829;DHT22;35723;51.194;5.112;2022-08-19T05:49:38;20.10;99.90
49829;DHT22;35723;51.194;5.112;2022-08-19T05:52:06;20.10;99.90
49829;DHT22;35723;51.194;5.112;2022-08-19T05:54:33;19.90;99.90
49829;DHT22;35723;51.194;5.112;2022-08-19T05:57:00;19.80;99.90
49829;DHT22;35723;51.194;5.112;2022-08-19T05:59:26;19.80;99.90
49829;DHT22;35723;51.194;5.112;2022-08-19T06:01:52;19.80;99.90
49829;DHT22;35723;51.194;5.112;2022-08-19T06:04:21;19.70;99.90
49829;DHT22;35723;51.194;5.112;2022-08-19T06:06:49;19.90;99.90
49829;DHT22;35723;51.194;5.112;2022-08-19T06:09:16;19.70;99.90
49829;DHT22;35723;51.194;5.112;2022-08-19T06:11:44;19.80;99.90
49829;DHT22;35723;51.194;5.112;2022-08-19T06:14:17;19.80;99.90
49829;DHT22;35723;51.194;5.112;2022-08-19T06:16:43;19.80;99.90
49829;DHT22;35723;51.194;5.112;2022-08-19T06:19:15;19.70;99.90
49829;DHT22;35723;51.194;5.112;2022-08-19T06:21:43;19.60;99.90
49829;DHT22;35723;51.194;5.112;2022-08-19T06:24:11;19.50;99.90
49829;DHT22;35723;51.194;5.112;2022-08-19T06:26:40;19.60;99.90
49829;DHT22;35723;51.194;5.112;2022-08-19T06:29:08;19.50;99.90
49829;DHT22;35723;51.194;5.112;2022-08-19T06:31:35;19.70;99.90
49829;DHT22;35723;51.194;5.112;2022-08-19T06:34:04;19.70;99.90
49829;DHT22;35723;51.194;5.112;2022-08-19T06:36:38;19.50;99.90
49829;DHT22;35723;51.194;5.112;2022-08-19T06:39:08;19.40;99.90
49829;DHT22;35723;51.194;5.112;2022-08-19T06:41:36;19.40;99.90
49829;DHT22;35723;51.194;5.112;2022-08-19T06:44:03;19.40;99.90
49829;DHT22;35723;51.194;5.112;2022-08-19T06:46:28;19.50;99.90
49829;DHT22;35723;51.194;5.112;2022-08-19T06:48:56;19.60;99.90
49829;DHT22;35723;51.194;5.112;2022-08-19T06:51:22;19.70;99.90
49829;DHT22;35723;51.194;5.112;2022-08-19T06:53:51;19.80;99.90
49829;DHT22;35723;51.194;5.112;2022-08-19T06:56:20;19.80;99.90
49829;DHT22;35723;51.194;5.112;2022-08-19T06:58:47;19.70;99.90
49829;DHT22;35723;51.194;5.112;2022-08-19T07:01:19;19.70;99.90
49829;DHT22;35723;51.194;5.112;2022-08-19T07:03:45;19.70;99.90
49829;DHT22;35723;51.194;5.112;2022-08-19T07:06:14;19.90;99.90
49829;DHT22;35723;51.194;5.112;2022-08-19T07:08:44;20.00;99.90
49829;DHT22;35723;51.194;5.112;2022-08-19T07:11:11;19.80;99.90
49829;DHT22;35723;51.194;5.112;2022-08-19T07:13:39;19.50;99.90
49829;DHT22;35723;51.194;5.112;2022-08-19T07:16:07;19.80;99.90
49829;DHT22;35723;51.194;5.112;2022-08-19T07:18:34;19.80;99.90
49829;DHT22;35723;51.194;5.112;2022-08-19T07:21:17;19.70;99.90
49829;DHT22;35723;51.194;5.112;2022-08-19T07:23:44;19.80;99.90
49829;DHT22;35723;51.194;5.112;2022-08-19T07:26:15;20.00;99.90
49829;DHT22;35723;51.194;5.112;2022-08-19T07:28:42;20.40;99.90
49829;DHT22;35723;51.194;5.112;2022-08-19T07:31:15;20.70;99.90
49829;DHT22;35723;51.194;5.112;2022-08-19T07:33:43;20.50;99.90
49829;DHT22;35723;51.194;5.112;2022-08-19T07:36:10;20.70;99.90
49829;DHT22;35723;51.194;5.112;2022-08-19T07:38:37;20.50;99.90
49829;DHT22;35723;51.194;5.112;2022-08-19T07:41:05;20.20;99.90
49829;DHT22;35723;51.194;5.112;2022-08-19T07:43:30;20.30;99.90
49829;DHT22;35723;51.194;5.112;2022-08-19T07:45:56;19.80;99.90
49829;DHT22;35723;51.194;5.112;2022-08-19T07:48:23;19.50;99.90
49829;DHT22;35723;51.194;5.112;2022-08-19T07:50:52;19.60;99.90
49829;DHT22;35723;51.194;5.112;2022-08-19T07:53:18;19.90;99.90
49829;DHT22;35723;51.194;5.112;2022-08-19T07:55:45;20.00;99.90
49829;DHT22;35723;51.194;5.112;2022-08-19T07:58:12;20.30;99.90
49829;DHT22;35723;51.194;5.112;2022-08-19T08:00:38;20.30;99.90
49829;DHT22;35723;51.194;5.112;2022-08-19T08:03:04;20.10;99.90
49829;DHT22;35723;51.194;5.112;2022-08-19T08:05:30;19.50;99.90
49829;DHT22;35723;51.194;5.112;2022-08-19T08:08:15;19.70;99.90
49829;DHT22;35723;51.194;5.112;2022-08-19T08:11:07;20.00;99.90
49829;DHT22;35723;51.194;5.112;2022-08-19T08:13:33;20.40;99.90
49829;DHT22;35723;51.194;5.112;2022-08-19T08:16:00;20.70;99.90
49829;DHT22;35723;51.194;5.112;2022-08-19T08:18:26;20.90;99.90
49829;DHT22;35723;51.194;5.112;2022-08-19T08:20:53;20.90;99.90
49829;DHT22;35723;51.194;5.112;2022-08-19T08:23:18;21.00;99.90
49829;DHT22;35723;51.194;5.112;2022-08-19T08:25:56;20.80;99.90
49829;DHT22;35723;51.194;5.112;2022-08-19T08:28:23;20.70;99.90
49829;DHT22;35723;51.194;5.112;2022-08-19T08:30:49;20.80;99.90
49829;DHT22;35723;51.194;5.112;2022-08-19T08:33:20;20.80;99.90
49829;DHT22;35723;51.194;5.112;2022-08-19T08:35:48;21.00;99.90
49829;DHT22;35723;51.194;5.112;2022-08-19T08:38:14;21.20;99.90
49829;DHT22;35723;51.194;5.112;2022-08-19T08:40:52;21.40;99.90
49829;DHT22;35723;51.194;5.112;2022-08-19T08:43:23;21.50;99.90
49829;DHT22;35723;51.194;5.112;2022-08-19T08:46:13;21.50;99.90
49829;DHT22;35723;51.194;5.112;2022-08-19T08:51:43;21.50;99.90
49829;DHT22;35723;51.194;5.112;2022-08-19T08:54:12;21.50;99.90
49829;DHT22;35723;51.194;5.112;2022-08-19T08:56:41;21.30;99.90
49829;DHT22;35723;51.194;5.112;2022-08-19T09:01:38;21.30;99.90
49829;DHT22;35723;51.194;5.112;2022-08-19T09:04:05;21.40;99.90
49829;DHT22;35723;51.194;5.112;2022-08-19T09:06:43;21.40;99.90
49829;DHT22;35723;51.194;5.112;2022-08-19T09:14:23;21.70;99.90
49829;DHT22;35723;51.194;5.112;2022-08-19T09:16:50;21.90;99.90
49829;DHT22;35723;51.194;5.112;2022-08-19T09:19:17;22.00;99.90
49829;DHT22;35723;51.194;5.112;2022-08-19T09:21:43;22.20;99.90
49829;DHT22;35723;51.194;5.112;2022-08-19T09:24:08;22.00;99.90
49829;DHT22;35723;51.194;5.112;2022-08-19T09:26:34;21.50;99.90
49829;DHT22;35723;51.194;5.112;2022-08-19T09:29:00;21.20;99.90
49829;DHT22;35723;51.194;5.112;2022-08-19T09:31:29;21.50;99.90
49829;DHT22;35723;51.194;5.112;2022-08-19T09:33:55;22.00;99.90
49829;DHT22;35723;51.194;5.112;2022-08-19T09:36:27;22.30;99.90
49829;DHT22;35723;51.194;5.112;2022-08-19T09:38:55;22.30;99.90
49829;DHT22;35723;51.194;5.112;2022-08-19T09:41:24;21.80;99.90
49829;DHT22;35723;51.194;5.112;2022-08-19T09:43:51;21.70;99.90
49829;DHT22;35723;51.194;5.112;2022-08-19T09:46:18;21.80;99.90
49829;DHT22;35723;51.194;5.112;2022-08-19T09:48:47;22.20;99.90
49829;DHT22;35723;51.194;5.112;2022-08-19T09:51:20;22.50;99.90
49829;DHT22;35723;51.194;5.112;2022-08-19T09:53:47;22.10;99.90
49829;DHT22;35723;51.194;5.112;2022-08-19T09:56:16;21.60;99.90
49829;DHT22;35723;51.194;5.112;2022-08-19T09:58:42;21.40;99.90
49829;DHT22;35723;51.194;5.112;2022-08-19T10:01:08;21.40;99.90
49829;DHT22;35723;51.194;5.112;2022-08-19T10:03:35;21.10;99.90
49829;DHT22;35723;51.194;5.112;2022-08-19T10:06:03;21.30;99.90
49829;DHT22;35723;51.194;5.112;2022-08-19T10:08:33;21.60;99.90
49829;DHT22;35723;51.194;5.112;2022-08-19T10:11:00;21.90;99.90
49829;DHT22;35723;51.194;5.112;2022-08-19T10:13:28;22.50;99.90
49829;DHT22;35723;51.194;5.112;2022-08-19T10:15:56;22.50;99.90
49829;DHT22;35723;51.194;5.112;2022-08-19T10:18:23;22.30;99.90
49829;DHT22;35723;51.194;5.112;2022-08-19T10:20:50;22.50;99.90
49829;DHT22;35723;51.194;5.112;2022-08-19T10:23:19;22.30;99.90
49829;DHT22;35723;51.194;5.112;2022-08-19T10:25:45;22.40;99.90
49829;DHT22;35723;51.194;5.112;2022-08-19T10:28:11;22.50;99.90
49829;DHT22;35723;51.194;5.112;2022-08-19T10:30:40;22.90;99.90
49829;DHT22;35723;51.194;5.112;2022-08-19T10:33:06;23.10;99.90
49829;DHT22;35723;51.194;5.112;2022-08-19T10:35:32;23.00;99.90
49829;DHT22;35723;51.194;5.112;2022-08-19T10:37:58;22.60;99.90
49829;DHT22;35723;51.194;5.112;2022-08-19T10:40:26;22.40;99.90
49829;DHT22;35723;51.194;5.112;2022-08-19T10:42:53;22.20;99.90
49829;DHT22;35723;51.194;5.112;2022-08-19T10:45:19;22.40;99.90
49829;DHT22;35723;51.194;5.112;2022-08-19T10:47:47;22.50;99.90
49829;DHT22;35723;51.194;5.112;2022-08-19T10:50:13;22.80;99.90
49829;DHT22;35723;51.194;5.112;2022-08-19T10:52:57;23.00;99.90
49829;DHT22;35723;51.194;5.112;2022-08-19T10:55:23;23.00;99.90
49829;DHT22;35723;51.194;5.112;2022-08-19T10:58:17;23.20;99.90
49829;DHT22;35723;51.194;5.112;2022-08-19T11:00:43;23.00;99.90
49829;DHT22;35723;51.194;5.112;2022-08-19T11:03:16;22.60;99.90
49829;DHT22;35723;51.194;5.112;2022-08-19T11:05:41;22.30;99.90
49829;DHT22;35723;51.194;5.112;2022-08-19T11:08:08;22.20;99.90
49829;DHT22;35723;51.194;5.112;2022-08-19T11:10:40;22.00;99.90
49829;DHT22;35723;51.194;5.112;2022-08-19T11:13:06;21.90;99.90
49829;DHT22;35723;51.194;5.112;2022-08-19T11:15:31;21.90;99.90
49829;DHT22;35723;51.194;5.112;2022-08-19T11:17:57;22.00;99.90
49829;DHT22;35723;51.194;5.112;2022-08-19T11:20:23;22.40;99.90
49829;DHT22;35723;51.194;5.112;2022-08-19T11:22:52;22.60;99.90
49829;DHT22;35723;51.194;5.112;2022-08-19T11:25:19;22.90;99.90
49829;DHT22;35723;51.194;5.112;2022-08-19T11:27:44;23.00;99.90
49829;DHT22;35723;51.194;5.112;2022-08-19T11:30:13;23.20;99.90
49829;DHT22;35723;51.194;5.112;2022-08-19T11:32:40;23.40;99.90
49829;DHT22;35723;51.194;5.112;2022-08-19T11:35:06;23.80;99.90
49829;DHT22;35723;51.194;5.112;2022-08-19T11:37:32;23.40;99.90
49829;DHT22;35723;51.194;5.112;2022-08-19T11:40:04;23.30;99.90
49829;DHT22;35723;51.194;5.112;2022-08-19T11:42:30;23.40;99.90
49829;DHT22;35723;51.194;5.112;2022-08-19T11:45:14;23.60;99.90
49829;DHT22;35723;51.194;5.112;2022-08-19T11:47:40;23.80;99.90
49829;DHT22;35723;51.194;5.112;2022-08-19T11:50:05;23.80;99.90
49829;DHT22;35723;51.194;5.112;2022-08-19T11:52:31;23.10;99.90
49829;DHT22;35723;51.194;5.112;2022-08-19T11:54:57;23.40;99.90
49829;DHT22;35723;51.194;5.112;2022-08-19T11:57:22;23.30;99.90
49829;DHT22;35723;51.194;5.112;2022-08-19T11:59:51;23.20;99.90
49829;DHT22;35723;51.194;5.112;2022-08-19T12:02:17;23.50;99.90
49829;DHT22;35723;51.194;5.112;2022-08-19T12:04:44;23.30;99.90
49829;DHT22;35723;51.194;5.112;2022-08-19T12:07:10;23.50;99.90
49829;DHT22;35723;51.194;5.112;2022-08-19T12:09:36;23.50;99.90
49829;DHT22;35723;51.194;5.112;2022-08-19T12:12:01;23.40;99.90
49829;DHT22;35723;51.194;5.112;2022-08-19T12:14:28;23.50;99.90
49829;DHT22;35723;51.194;5.112;2022-08-19T12:16:55;23.60;99.90
49829;DHT22;35723;51.194;5.112;2022-08-19T12:19:21;23.30;99.90
49829;DHT22;35723;51.194;5.112;2022-08-19T12:21:46;23.40;99.90
49829;DHT22;35723;51.194;5.112;2022-08-19T12:24:13;23.70;99.90
49829;DHT22;35723;51.194;5.112;2022-08-19T12:26:38;24.00;99.90
49829;DHT22;35723;51.194;5.112;2022-08-19T12:29:04;24.20;99.90
49829;DHT22;35723;51.194;5.112;2022-08-19T12:31:30;23.90;99.90
49829;DHT22;35723;51.194;5.112;2022-08-19T12:33:56;23.70;99.90
49829;DHT22;35723;51.194;5.112;2022-08-19T12:36:22;23.60;99.90
49829;DHT22;35723;51.194;5.112;2022-08-19T12:38:48;23.70;99.90
49829;DHT22;35723;51.194;5.112;2022-08-19T12:41:16;23.70;99.90
49829;DHT22;35723;51.194;5.112;2022-08-19T12:43:44;23.40;99.90
49829;DHT22;35723;51.194;5.112;2022-08-19T12:46:10;23.50;99.90
49829;DHT22;35723;51.194;5.112;2022-08-19T12:48:37;23.70;99.90
49829;DHT22;35723;51.194;5.112;2022-08-19T12:51:09;23.80;99.90
49829;DHT22;35723;51.194;5.112;2022-08-19T12:53:35;23.40;99.90
49829;DHT22;35723;51.194;5.112;2022-08-19T12:56:01;23.50;99.90
49829;DHT22;35723;51.194;5.112;2022-08-19T12:58:27;23.90;99.90
49829;DHT22;35723;51.194;5.112;2022-08-19T13:00:54;24.40;99.90
49829;DHT22;35723;51.194;5.112;2022-08-19T13:03:20;24.70;99.90
49829;DHT22;35723;51.194;5.112;2022-08-19T13:05:52;24.30;99.90
49829;DHT22;35723;51.194;5.112;2022-08-19T13:08:18;24.00;99.90
49829;DHT22;35723;51.194;5.112;2022-08-19T13:10:43;24.20;99.90
49829;DHT22;35723;51.194;5.112;2022-08-19T13:13:09;23.90;99.90
49829;DHT22;35723;51.194;5.112;2022-08-19T13:15:38;24.00;99.90
49829;DHT22;35723;51.194;5.112;2022-08-19T13:18:06;24.20;99.90
49829;DHT22;35723;51.194;5.112;2022-08-19T13:20:32;24.60;99.90
49829;DHT22;35723;51.194;5.112;2022-08-19T13:22:58;25.10;99.90
49829;DHT22;35723;51.194;5.112;2022-08-19T13:25:24;25.40;99.90
49829;DHT22;35723;51.194;5.112;2022-08-19T13:27:50;25.20;99.90
49829;DHT22;35723;51.194;5.112;2022-08-19T13:30:18;25.10;99.90
49829;DHT22;35723;51.194;5.112;2022-08-19T13:33:02;25.20;99.90
49829;DHT22;35723;51.194;5.112;2022-08-19T13:35:42;25.00;99.90
49829;DHT22;35723;51.194;5.112;2022-08-19T13:38:08;25.00;99.90
49829;DHT22;35723;51.194;5.112;2022-08-19T13:40:36;25.30;99.90
49829;DHT22;35723;51.194;5.112;2022-08-19T13:43:03;25.50;99.90
49829;DHT22;35723;51.194;5.112;2022-08-19T13:45:31;25.60;99.90
49829;DHT22;35723;51.194;5.112;2022-08-19T13:48:03;26.00;99.90
49829;DHT22;35723;51.194;5.112;2022-08-19T13:50:32;26.10;99.90
49829;DHT22;35723;51.194;5.112;2022-08-19T13:52:59;25.90;99.90
49829;DHT22;35723;51.194;5.112;2022-08-19T13:55:26;25.60;99.90
49829;DHT22;35723;51.194;5.112;2022-08-19T13:57:53;25.80;99.90
49829;DHT22;35723;51.194;5.112;2022-08-19T14:00:21;26.00;99.90
49829;DHT22;35723;51.194;5.112;2022-08-19T14:02:51;26.00;99.90
49829;DHT22;35723;51.194;5.112;2022-08-19T14:05:18;26.00;99.90
49829;DHT22;35723;51.194;5.112;2022-08-19T14:07:44;25.90;99.90
49829;DHT22;35723;51.194;5.112;2022-08-19T14:10:11;25.60;99.90
49829;DHT22;35723;51.194;5.112;2022-08-19T14:12:38;25.40;99.90
49829;DHT22;35723;51.194;5.112;2022-08-19T14:15:07;25.60;99.90
49829;DHT22;35723;51.194;5.112;2022-08-19T14:17:33;25.60;99.90
49829;DHT22;35723;51.194;5.112;2022-08-19T14:20:03;25.90;99.90
49829;DHT22;35723;51.194;5.112;2022-08-19T14:22:33;26.30;99.90
49829;DHT22;35723;51.194;5.112;2022-08-19T14:24:59;26.30;99.90
49829;DHT22;35723;51.194;5.112;2022-08-19T14:27:25;26.30;99.90
49829;DHT22;35723;51.194;5.112;2022-08-19T14:29:54;26.20;99.90
49829;DHT22;35723;51.194;5.112;2022-08-19T14:32:20;26.20;99.90
49829;DHT22;35723;51.194;5.112;2022-08-19T14:34:47;26.20;99.90
49829;DHT22;35723;51.194;5.112;2022-08-19T14:37:14;26.20;99.90
49829;DHT22;35723;51.194;5.112;2022-08-19T14:39:41;25.90;99.90
49829;DHT22;35723;51.194;5.112;2022-08-19T14:42:08;26.00;99.90
49829;DHT22;35723;51.194;5.112;2022-08-19T14:44:35;26.00;99.90
49829;DHT22;35723;51.194;5.112;2022-08-19T14:47:00;26.10;99.90
49829;DHT22;35723;51.194;5.112;2022-08-19T14:49:26;26.20;99.90
49829;DHT22;35723;51.194;5.112;2022-08-19T14:51:52;26.10;99.90
49829;DHT22;35723;51.194;5.112;2022-08-19T14:54:18;25.40;99.90
49829;DHT22;35723;51.194;5.112;2022-08-19T14:56:43;25.30;99.90
49829;DHT22;35723;51.194;5.112;2022-08-19T14:59:09;25.20;99.90
49829;DHT22;35723;51.194;5.112;2022-08-19T15:01:34;25.20;99.90
49829;DHT22;35723;51.194;5.112;2022-08-19T15:04:00;25.10;99.90
49829;DHT22;35723;51.194;5.112;2022-08-19T15:06:26;25.00;99.90
49829;DHT22;35723;51.194;5.112;2022-08-19T15:08:52;25.10;99.90
49829;DHT22;35723;51.194;5.112;2022-08-19T15:11:23;25.30;99.90
49829;DHT22;35723;51.194;5.112;2022-08-19T15:13:49;25.60;99.90
49829;DHT22;35723;51.194;5.112;2022-08-19T15:16:16;25.90;99.90
49829;DHT22;35723;51.194;5.112;2022-08-19T15:18:43;25.60;99.90
49829;DHT22;35723;51.194;5.112;2022-08-19T15:21:14;25.80;99.90
49829;DHT22;35723;51.194;5.112;2022-08-19T15:23:47;25.90;99.90
49829;DHT22;35723;51.194;5.112;2022-08-19T15:26:14;26.00;99.90
49829;DHT22;35723;51.194;5.112;2022-08-19T15:28:40;26.10;99.90
49829;DHT22;35723;51.194;5.112;2022-08-19T15:31:06;26.30;99.90
49829;DHT22;35723;51.194;5.112;2022-08-19T15:33:33;26.30;99.90
49829;DHT22;35723;51.194;5.112;2022-08-19T15:36:02;26.00;99.90
49829;DHT22;35723;51.194;5.112;2022-08-19T15:38:28;25.70;99.90
49829;DHT22;35723;51.194;5.112;2022-08-19T15:40:54;26.00;99.90
49829;DHT22;35723;51.194;5.112;2022-08-19T15:43:41;26.10;99.90
49829;DHT22;35723;51.194;5.112;2022-08-19T15:46:07;26.10;99.90